Romeoville, IL

5:16 AM CDT on September 05, 2015 (GMT -0500)
Lewis University | | Change Station
CLOSE
Current Station
Airport
Location: Romeoville,
Elevation: 673 ft
Nearby Weather Stations

Elev 673 ft 41.60 °N, 88.10 °W | Updated 21 minutes ago

Mostly Cloudy
Mostly Cloudy
68 °F
Feels Like 68 °F
N
5
Wind Variable Wind from SSE

Today
High -- | Low -- °F
--% Chance of Precip.
Yesterday
High -- | Low -- °F
Precip. -- in
6:22 AM 7:19 PM
Waning Gibbous, 50% visible
Pressure 30.08 in
Visibility 7.0 miles
Clouds Scattered Clouds 5000 ft
Scattered Clouds 6500 ft
Scattered Clouds 7500 ft
Dew Point 66 °F
Humidity 92%
Rainfall 0.00 in
Snow Depth Not available.
UV 0 out of 12
Pollen 8.90 out of 12
Air Quality Not available.
Flu Activity Not available.
METAR KLOT 050955Z AUTO 15004KT 7SM SCT050 SCT065 SCT075 20/19 A3008 RMK AO2 LTG DSNT S AND SW T02020189
Pressure 30.08 in
Visibility 7.0 miles
Clouds Scattered Clouds 5000 ft
Scattered Clouds 6500 ft
Scattered Clouds 7500 ft
Dew Point 66 °F
Humidity 92%
Rainfall 0.00 in
Snow Depth Not available.
UV 0 out of 12
Pollen 8.90 out of 12
Air Quality Not available.
Flu Activity Not available.
METAR KLOT 050955Z AUTO 15004KT 7SM SCT050 SCT065 SCT075 20/19 A3008 RMK AO2 LTG DSNT S AND SW T02020189

10-Day Weather Forecast

×

Almanac

Astronomy

Sep. 05, 2015 Rise Set
Actual Time
Civil Twilight
Nautical Twilight
Astronomical Twilight
Moon
Length of Visible Light
Length of Day
Tomorrow will be .
, % of the Moon is Illuminated

Today's Extremes

State Highs State Lows

Community

WunderPhotos

Upload Photos

1,852,440 photos uploaded!

WunderBlogs® & News

Nearby

Air Quality

  Air Quality AQ Index Pollutant
Not available.

Snow Depth

Station Depth Elevation

Earthquake Activity

City Distance Mag. Time & Date
Minimum magnitude displayed is 2.5.

Coastal Water Temperatures

Place Temperature

Stations

Nearby Weather Stations

Station Location Temp. Windchill Dew Point Humidity Wind Precip. Elev Updated Type